Time;durP1;ratioP1;P1;durP2;ratioP2;P2;SDS_P1;SDS_P2;PMS_P1;PMS_P2;Temp;Humidity;BMP_temperature;BMP_pressure;BME280_temperature;BME280_humidity;BME280_pressure;Samples;Min_cycle;Max_cycle;Signal;HPM_P1;HPM_P2
2022/10/25 00:00:15;;;;;;;49.28;31.67;;;;;;;13.70;100.00;100405.53;5002030;28;20040;-70
2022/10/25 00:02:40;;;;;;;43.58;31.55;;;;;;;13.77;100.00;100410.16;5008301;28;20030;-70
2022/10/25 00:05:06;;;;;;;50.13;31.40;;;;;;;13.75;100.00;100403.25;5004445;28;20042;-70
2022/10/25 00:07:32;;;;;;;39.80;30.15;;;;;;;13.63;100.00;100389.16;4999444;28;20011;-70
2022/10/25 00:09:57;;;;;;;47.80;32.20;;;;;;;13.73;100.00;100401.72;4988745;28;20396;-70
2022/10/25 00:12:23;;;;;;;44.00;31.52;;;;;;;13.73;100.00;100409.78;4988492;28;20026;-70
2022/10/25 00:14:49;;;;;;;43.22;30.50;;;;;;;13.70;100.00;100395.63;4988797;28;20041;-70
2022/10/25 00:17:14;;;;;;;44.80;31.33;;;;;;;13.72;100.00;100400.84;4988197;28;20034;-70
2022/10/25 00:19:39;;;;;;;42.00;31.52;;;;;;;13.69;100.00;100382.28;4988417;28;20043;-70
2022/10/25 00:22:05;;;;;;;47.25;31.60;;;;;;;13.69;100.00;100375.06;4988241;28;20088;-70
2022/10/25 00:24:30;;;;;;;47.08;33.50;;;;;;;13.73;100.00;100376.44;4988130;28;20042;-70
2022/10/25 00:26:56;;;;;;;42.15;31.15;;;;;;;13.68;100.00;100372.53;4988337;28;20026;-70
2022/10/25 00:29:21;;;;;;;54.35;34.85;;;;;;;13.71;100.00;100373.03;4986828;28;20146;-70
2022/10/25 00:31:47;;;;;;;50.35;34.17;;;;;;;13.49;100.00;100329.53;4988464;28;20084;-70
2022/10/25 00:34:12;;;;;;;44.17;31.75;;;;;;;13.68;100.00;100361.72;4986823;28;20088;-70
2022/10/25 00:36:38;;;;;;;45.13;31.27;;;;;;;13.54;100.00;100335.28;4987762;28;20532;-70
2022/10/25 00:39:03;;;;;;;43.17;32.15;;;;;;;13.67;100.00;100351.94;4986465;28;20061;-70
2022/10/25 00:41:31;;;;;;;46.38;32.33;;;;;;;13.60;100.00;100346.31;4987832;28;20370;-70
2022/10/25 00:44:34;;;;;;;45.05;31.15;;;;;;;13.60;100.00;100348.16;4988064;28;20793;-70
2022/10/25 00:47:01;;;;;;;45.45;31.42;;;;;;;13.59;100.00;100354.56;4987971;28;20069;-70
2022/10/25 00:49:26;;;;;;;50.63;34.10;;;;;;;13.57;100.00;100364.63;4987658;28;20392;-70
2022/10/25 00:51:56;;;;;;;52.13;32.97;;;;;;;13.56;100.00;100374.59;4988170;28;20047;-71
2022/10/25 00:54:40;;;;;;;48.92;32.97;;;;;;;13.52;100.00;100372.34;4988014;28;20034;-70
2022/10/25 00:57:16;;;;;;;47.72;32.15;;;;;;;13.55;100.00;100399.81;4987926;28;20084;-70
2022/10/25 00:59:43;;;;;;;43.13;30.10;;;;;;;13.52;100.00;100389.34;4987283;28;20041;-70
2022/10/25 01:02:09;;;;;;;44.30;30.27;;;;;;;13.74;100.00;100415.03;4988492;28;20025;-70
2022/10/25 01:04:35;;;;;;;45.67;31.60;;;;;;;13.59;100.00;100428.19;5007261;28;20069;-70
2022/10/25 01:07:01;;;;;;;45.67;32.00;;;;;;;13.52;100.00;100418.97;5007588;28;20088;-70
2022/10/25 01:09:33;;;;;;;55.60;34.88;;;;;;;13.64;100.00;100408.84;5007337;28;20033;-70
2022/10/25 01:11:58;;;;;;;49.60;32.58;;;;;;;13.53;100.00;100390.19;5007132;28;20068;-70
2022/10/25 01:14:25;;;;;;;45.97;31.80;;;;;;;13.55;100.00;100399.00;5007028;28;20415;-71
2022/10/25 01:17:09;;;;;;;50.22;33.40;;;;;;;13.53;100.00;100406.38;5007532;28;20018;-71
2022/10/25 01:20:07;;;;;;;53.53;34.67;;;;;;;13.50;100.00;100409.38;5007145;28;20124;-70
2022/10/25 01:22:39;;;;;;;55.60;35.53;;;;;;;13.42;100.00;100390.41;5006777;28;20033;-71
2022/10/25 01:25:16;;;;;;;56.97;34.25;;;;;;;13.46;100.00;100411.53;5007147;28;20128;-71
2022/10/25 01:27:59;;;;;;;56.30;34.90;;;;;;;13.42;100.00;100409.28;5007292;28;20022;-71
2022/10/25 01:31:03;;;;;;;51.17;33.60;;;;;;;13.44;100.00;100412.66;5007235;28;20030;-70
2022/10/25 01:33:34;;;;;;;53.17;34.67;;;;;;;13.44;100.00;100420.72;4990937;28;20049;-70
2022/10/25 01:36:25;;;;;;;53.15;35.13;;;;;;;13.39;100.00;100406.88;5007300;28;20045;-71
2022/10/25 01:39:05;;;;;;;50.30;32.63;;;;;;;13.26;100.00;100403.69;5007055;28;20487;-71
2022/10/25 01:41:49;;;;;;;48.72;32.55;;;;;;;13.40;100.00;100414.81;5006780;28;20034;-71
2022/10/25 01:44:23;;;;;;;48.13;32.40;;;;;;;13.45;100.00;100425.16;5007128;28;20061;-71
2022/10/25 01:46:51;;;;;;;49.40;32.50;;;;;;;13.48;100.00;100425.69;5007051;28;20029;-71
2022/10/25 01:49:42;;;;;;;48.72;32.33;;;;;;;13.45;100.00;100431.38;5006964;28;20050;-71
2022/10/25 01:52:07;;;;;;;51.53;33.63;;;;;;;13.50;100.00;100433.63;4966564;28;20072;-71
2022/10/25 01:54:33;;;;;;;51.78;34.47;;;;;;;13.48;100.00;100433.75;5005254;28;20054;-71
2022/10/25 01:57:05;;;;;;;51.30;33.17;;;;;;;13.42;100.00;100433.53;5006939;28;20032;-70
2022/10/25 01:59:38;;;;;;;57.88;35.70;;;;;;;13.44;100.00;100436.91;5005608;28;20030;-71
2022/10/25 02:02:38;;;;;;;55.93;35.50;;;;;;;13.46;100.00;100443.88;5006821;28;20040;-70
2022/10/25 02:05:15;;;;;;;57.42;36.30;;;;;;;13.34;100.00;100442.34;5005609;28;20350;-71
2022/10/25 02:08:12;;;;;;;71.63;39.25;;;;;;;13.41;100.00;100443.44;5006548;28;20429;-70
2022/10/25 02:10:41;;;;;;;62.85;38.65;;;;;;;13.39;100.00;100444.59;5006709;28;20034;-71
2022/10/25 02:13:20;;;;;;;69.28;39.58;;;;;;;13.32;100.00;100440.81;5010544;28;20036;-70
2022/10/25 02:16:06;;;;;;;66.20;38.38;;;;;;;13.28;100.00;100437.56;5009052;28;20087;-70
2022/10/25 02:18:36;;;;;;;76.43;40.05;;;;;;;13.31;100.00;100461.50;5009421;28;20121;-70
2022/10/25 02:21:05;;;;;;;70.30;38.30;;;;;;;13.16;100.00;100443.28;5010142;28;20041;-70
2022/10/25 02:23:36;;;;;;;70.53;39.72;;;;;;;13.23;100.00;100457.84;5008233;28;20065;-70
2022/10/25 02:26:06;;;;;;;56.03;35.25;;;;;;;13.20;100.00;100460.84;5010022;28;20026;-70
2022/10/25 02:28:33;;;;;;;67.70;38.92;;;;;;;13.16;100.00;100448.69;5009614;28;20053;-70
2022/10/25 02:31:00;;;;;;;66.07;39.00;;;;;;;13.16;100.00;100446.00;5010068;28;20033;-71
2022/10/25 02:33:25;;;;;;;68.82;37.80;;;;;;;13.19;100.00;100461.84;5009833;28;20080;-71
2022/10/25 02:36:28;;;;;;;60.20;36.28;;;;;;;13.12;100.00;100466.09;5008889;28;20033;-70
2022/10/25 02:38:54;;;;;;;56.60;34.72;;;;;;;13.32;100.00;100465.06;5009803;28;20053;-71
2022/10/25 02:41:20;;;;;;;60.70;35.70;;;;;;;13.29;100.00;100473.44;5008157;28;20033;-70
2022/10/25 02:43:46;;;;;;;59.92;36.65;;;;;;;13.18;100.00;100469.06;5009612;28;20424;-71
2022/10/25 02:46:16;;;;;;;54.50;34.83;;;;;;;13.22;100.00;100465.09;5009794;28;20026;-71
2022/10/25 02:48:42;;;;;;;60.03;36.33;;;;;;;13.16;100.00;100462.16;5009448;28;20365;-70
2022/10/25 02:51:09;;;;;;;58.83;35.47;;;;;;;13.01;100.00;100437.53;5009604;28;20050;-70
2022/10/25 02:53:34;;;;;;;63.70;37.50;;;;;;;13.17;100.00;100464.69;5009144;28;20403;-70
2022/10/25 02:56:00;;;;;;;60.65;36.53;;;;;;;13.19;100.00;100468.06;5009541;28;20033;-70
2022/10/25 02:58:28;;;;;;;57.97;35.45;;;;;;;13.18;100.00;100476.28;5007878;28;20048;-71
2022/10/25 03:00:54;;;;;;;60.97;35.05;;;;;;;13.18;100.00;100478.97;5008411;28;20027;-70
2022/10/25 03:03:19;;;;;;;70.97;38.33;;;;;;;13.25;100.00;100489.03;4999621;28;20024;-70
2022/10/25 03:05:44;;;;;;;68.18;38.20;;;;;;;13.32;100.00;100483.91;4997603;28;20030;-70
2022/10/25 03:08:10;;;;;;;61.85;37.47;;;;;;;13.32;100.00;100489.31;4998045;28;20025;-71
2022/10/25 03:10:36;;;;;;;66.03;39.05;;;;;;;13.18;100.00;100460.13;4999413;28;20034;-70
2022/10/25 03:13:02;;;;;;;61.03;36.72;;;;;;;13.28;100.00;100472.56;4998799;28;20021;-71
2022/10/25 03:15:27;;;;;;;71.85;38.90;;;;;;;13.27;100.00;100451.16;4997433;28;20032;-70
2022/10/25 03:17:53;;;;;;;71.07;37.95;;;;;;;13.34;100.00;100463.03;4997849;28;20030;-70
2022/10/25 03:20:18;;;;;;;69.35;38.10;;;;;;;13.33;100.00;100461.34;5000660;28;20018;-70
2022/10/25 03:22:44;;;;;;;72.32;39.55;;;;;;;13.22;100.00;100446.22;4998403;28;20038;-70
2022/10/25 03:25:09;;;;;;;68.88;40.40;;;;;;;13.46;100.00;100472.63;4996154;28;20034;-70
2022/10/25 03:27:35;;;;;;;78.03;40.85;;;;;;;13.46;100.00;100469.94;4997651;28;20019;-70
2022/10/25 03:30:00;;;;;;;67.93;39.78;;;;;;;13.40;100.00;100451.69;4997802;28;20053;-70
2022/10/25 03:32:26;;;;;;;72.60;40.10;;;;;;;13.55;100.00;100469.88;4995794;28;20376;-71
2022/10/25 03:34:51;;;;;;;88.03;43.67;;;;;;;13.37;100.00;100443.88;4998835;28;20463;-70
2022/10/25 03:37:16;;;;;;;73.38;40.53;;;;;;;13.52;100.00;100477.44;4997979;28;20036;-70
2022/10/25 03:39:42;;;;;;;64.82;37.33;;;;;;;13.52;100.00;100469.34;4999927;28;20040;-70
2022/10/25 03:42:07;;;;;;;80.25;40.28;;;;;;;13.52;100.00;100453.19;4997093;28;20113;-70
2022/10/25 03:44:33;;;;;;;72.88;39.45;;;;;;;13.46;100.00;100448.38;4997631;28;20058;-69
2022/10/25 03:46:58;;;;;;;68.60;38.05;;;;;;;13.51;100.00;100464.94;4998947;28;20021;-70
2022/10/25 03:49:25;;;;;;;72.15;40.15;;;;;;;13.66;100.00;100474.22;5000136;28;20025;-70
2022/10/25 03:51:50;;;;;;;72.68;39.35;;;;;;;13.62;100.00;100471.00;5002210;28;20466;-70
2022/10/25 03:54:16;;;;;;;67.82;38.10;;;;;;;13.62;100.00;100449.44;4997034;28;20034;-70
2022/10/25 03:56:41;;;;;;;72.97;38.42;;;;;;;13.63;100.00;100448.44;4997496;28;20041;-70
2022/10/25 03:59:06;;;;;;;73.50;38.85;;;;;;;13.45;100.00;100412.50;5008428;28;20035;-70
2022/10/25 04:01:32;;;;;;;65.43;36.55;;;;;;;13.65;100.00;100438.34;5008368;28;20034;-70
2022/10/25 04:03:57;;;;;;;73.20;38.88;;;;;;;13.63;100.00;100439.50;5008287;28;20499;-70
2022/10/25 04:06:23;;;;;;;71.45;40.78;;;;;;;13.86;100.00;100469.59;5008498;28;20383;-70
2022/10/25 04:08:48;;;;;;;78.15;40.17;;;;;;;13.87;100.00;100474.81;5008487;28;20073;-71
2022/10/25 04:11:14;;;;;;;76.55;38.92;;;;;;;13.93;100.00;100474.19;5008166;28;20060;-71
2022/10/25 04:13:39;;;;;;;69.28;37.22;;;;;;;13.89;100.00;100472.81;5008037;28;20076;-71
2022/10/25 04:16:06;;;;;;;72.15;37.25;;;;;;;13.94;100.00;100481.31;5008188;28;20025;-70
2022/10/25 04:18:32;;;;;;;71.88;38.70;;;;;;;14.04;100.00;100484.78;5007783;28;20032;-70
2022/10/25 04:20:57;;;;;;;64.32;35.45;;;;;;;13.99;100.00;100478.97;5008187;28;20030;-70
2022/10/25 04:23:23;;;;;;;72.13;37.97;;;;;;;13.99;100.00;100473.59;5008069;28;20046;-70
2022/10/25 04:25:49;;;;;;;69.40;38.30;;;;;;;13.95;100.00;100477.59;5007993;28;20519;-70
2022/10/25 04:28:15;;;;;;;72.90;37.90;;;;;;;14.01;100.00;100484.22;5008135;28;20713;-70
2022/10/25 04:30:40;;;;;;;77.03;39.10;;;;;;;13.83;100.00;100453.72;5007621;28;20026;-70
2022/10/25 04:33:06;;;;;;;69.28;38.90;;;;;;;13.94;100.00;100484.00;5006141;28;20512;-70
2022/10/25 04:35:31;;;;;;;69.70;38.33;;;;;;;13.81;100.00;100461.94;5007661;28;20026;-70
2022/10/25 04:37:57;;;;;;;75.78;40.00;;;;;;;13.96;100.00;100489.25;5000993;28;20125;-70
2022/10/25 04:40:23;;;;;;;69.38;39.22;;;;;;;13.93;100.00;100479.59;4998911;28;20530;-70
2022/10/25 04:42:49;;;;;;;70.47;38.63;;;;;;;13.94;100.00;100496.63;4998259;28;20072;-70
2022/10/25 04:45:14;;;;;;;76.68;42.45;;;;;;;14.03;100.00;100493.03;4994674;28;20034;-70
2022/10/25 04:47:39;;;;;;;71.70;38.30;;;;;;;13.98;100.00;100492.63;4997967;28;20035;-70
2022/10/25 04:50:05;;;;;;;75.63;39.40;;;;;;;13.90;100.00;100477.22;4995428;28;20472;-71
2022/10/25 04:52:31;;;;;;;76.35;39.40;;;;;;;14.17;100.00;100497.88;5000123;28;20590;-70
2022/10/25 04:54:57;;;;;;;84.63;40.67;;;;;;;14.13;100.00;100494.66;5009787;28;20058;-70
2022/10/25 04:57:24;;;;;;;72.18;38.55;;;;;;;14.13;100.00;100491.97;5009699;28;20030;-70
2022/10/25 04:59:49;;;;;;;71.70;38.85;;;;;;;14.16;100.00;100490.81;4996573;28;20029;-70
2022/10/25 05:02:15;;;;;;;74.28;38.10;;;;;;;14.19;100.00;100495.91;4996501;28;20019;-70
2022/10/25 05:04:41;;;;;;;66.80;36.28;;;;;;;14.22;100.00;100495.59;4994490;28;20034;-70
2022/10/25 05:07:06;;;;;;;67.25;36.42;;;;;;;14.16;100.00;100480.88;4999405;28;20021;-70
2022/10/25 05:09:32;;;;;;;57.90;35.60;;;;;;;14.26;100.00;100502.41;4997885;28;20034;-71
2022/10/25 05:11:57;;;;;;;65.68;35.70;;;;;;;14.30;100.00;100499.25;5006925;28;20026;-70
2022/10/25 05:14:22;;;;;;;60.05;33.88;;;;;;;14.26;100.00;100505.97;5000092;28;20109;-70
2022/10/25 05:16:48;;;;;;;64.85;34.60;;;;;;;14.33;100.00;100517.81;4998295;28;20710;-70
2022/10/25 05:19:13;;;;;;;60.67;34.70;;;;;;;14.33;100.00;100527.75;4995290;28;20465;-70
2022/10/25 05:21:39;;;;;;;59.85;33.60;;;;;;;14.40;100.00;100529.69;5005628;28;20036;-70
2022/10/25 05:24:04;;;;;;;54.42;31.73;;;;;;;14.42;100.00;100541.19;5012953;28;20484;-70
2022/10/25 05:26:31;;;;;;;61.22;33.25;;;;;;;14.36;100.00;100540.94;5003791;28;20360;-70
2022/10/25 05:28:56;;;;;;;61.22;34.08;;;;;;;14.38;100.00;100538.94;5000478;28;20053;-70
2022/10/25 05:44:05;;;;;;;64.72;36.88;;;;;;;14.50;100.00;100535.84;5131386;27;20394;-69
2022/10/25 05:46:31;;;;;;;57.08;36.28;;;;;;;14.42;100.00;100522.31;5121798;27;20028;-69
2022/10/25 05:48:58;;;;;;;58.25;35.28;;;;;;;14.62;100.00;100540.03;5122041;27;20485;-70
2022/10/25 05:51:28;;;;;;;55.85;34.58;;;;;;;14.68;100.00;100561.00;5118526;27;20081;-69
2022/10/25 05:53:56;;;;;;;60.38;33.90;;;;;;;14.70;100.00;100556.28;5126485;27;20110;-69
2022/10/25 05:56:23;;;;;;;55.50;33.45;;;;;;;14.67;100.00;100559.28;5138063;27;20042;-69
2022/10/25 05:58:49;;;;;;;58.63;34.08;;;;;;;14.72;100.00;100561.53;5147438;27;20023;-69
2022/10/25 06:01:17;;;;;;;57.15;31.45;;;;;;;14.83;100.00;100582.91;5145786;27;20034;-70
2022/10/25 06:03:46;;;;;;;53.00;30.83;;;;;;;14.94;100.00;100596.16;5147267;27;20492;-69
2022/10/25 06:06:11;;;;;;;50.05;30.90;;;;;;;14.89;100.00;100583.13;5147022;27;20058;-69
2022/10/25 06:08:37;;;;;;;43.25;28.20;;;;;;;14.76;100.00;100566.47;5147265;27;20050;-69
2022/10/25 06:11:20;;;;;;;45.95;28.63;;;;;;;14.79;100.00;100576.97;5134634;27;20084;-69
2022/10/25 06:13:46;;;;;;;45.63;28.80;;;;;;;14.85;100.00;100584.44;5105750;28;20032;-69
2022/10/25 06:16:14;;;;;;;44.72;27.85;;;;;;;14.88;100.00;100576.03;5105621;28;20643;-69
2022/10/25 06:18:40;;;;;;;47.38;28.08;;;;;;;14.88;100.00;100586.84;5105732;28;20036;-69
2022/10/25 06:21:12;;;;;;;42.85;27.08;;;;;;;14.76;100.00;100576.41;5105611;28;20536;-69
2022/10/25 06:23:38;;;;;;;43.83;26.25;;;;;;;14.99;100.00;100610.06;5105764;28;20031;-70
2022/10/25 06:26:10;;;;;;;42.33;25.92;;;;;;;14.94;100.00;100607.84;5104093;28;20046;-70
2022/10/25 06:28:37;;;;;;;40.33;26.35;;;;;;;14.99;100.00;100600.09;5114182;27;20606;-69
2022/10/25 06:31:07;;;;;;;43.50;27.27;;;;;;;14.97;100.00;100602.13;5124459;27;20028;-69
2022/10/25 06:33:33;;;;;;;41.65;25.40;;;;;;;14.95;100.00;100601.41;5123477;27;20023;-69
2022/10/25 06:36:00;;;;;;;43.50;26.30;;;;;;;15.02;100.00;100607.88;5124682;27;20030;-70
2022/10/25 06:38:27;;;;;;;40.72;25.02;;;;;;;14.99;100.00;100588.47;5125335;27;20061;-69
2022/10/25 06:41:03;;;;;;;40.92;26.30;;;;;;;15.06;100.00;100595.75;5136910;27;20098;-69
2022/10/25 06:43:29;;;;;;;36.72;25.55;;;;;;;15.12;100.00;100589.72;5140560;27;20059;-69
2022/10/25 06:45:55;;;;;;;41.58;24.52;;;;;;;15.12;100.00;100607.81;5107159;27;20540;-69
2022/10/25 06:48:21;;;;;;;36.08;23.10;;;;;;;15.27;100.00;100611.63;5124893;27;20031;-70
2022/10/25 06:50:47;;;;;;;36.60;23.50;;;;;;;15.23;100.00;100608.41;5121059;27;20027;-69
2022/10/25 06:53:13;;;;;;;34.45;22.63;;;;;;;15.15;100.00;100593.97;5110397;28;20057;-70
2022/10/25 06:55:38;;;;;;;32.72;21.83;;;;;;;15.27;100.00;100611.63;5111592;28;20084;-69
2022/10/25 06:58:04;;;;;;;33.78;22.70;;;;;;;15.27;100.00;100625.16;5111711;28;20027;-69
2022/10/25 07:00:29;;;;;;;38.47;23.17;;;;;;;15.33;100.00;100619.13;5110319;28;20474;-69
2022/10/25 07:02:56;;;;;;;34.83;21.75;;;;;;;15.32;100.00;100626.38;5111954;28;20059;-69
2022/10/25 07:05:22;;;;;;;34.67;22.33;;;;;;;15.35;100.00;100644.16;5111559;28;20125;-69
2022/10/25 07:07:47;;;;;;;30.98;22.10;;;;;;;15.43;100.00;100638.81;5111477;28;20054;-69
2022/10/25 07:10:13;;;;;;;30.75;22.08;;;;;;;15.52;100.00;100652.25;5111482;28;20436;-69
2022/10/25 07:12:38;;;;;;;31.25;21.08;;;;;;;15.40;100.00;100647.25;5109891;28;20042;-69
2022/10/25 07:15:04;;;;;;;33.58;21.98;;;;;;;15.32;100.00;100647.16;5110060;28;20109;-69
2022/10/25 07:17:29;;;;;;;32.53;21.77;;;;;;;15.37;100.00;100653.81;5109926;28;20068;-69
2022/10/25 07:19:56;;;;;;;33.97;22.75;;;;;;;15.35;100.00;100655.78;5110281;28;20386;-69
2022/10/25 07:22:22;;;;;;;39.97;23.15;;;;;;;15.48;100.00;100658.13;5117357;27;20031;-69
2022/10/25 07:24:48;;;;;;;33.33;22.58;;;;;;;15.46;100.00;100652.88;5118844;27;20508;-69
2022/10/25 07:27:14;;;;;;;37.08;23.73;;;;;;;15.46;100.00;100660.13;5111052;28;20027;-69
2022/10/25 07:29:39;;;;;;;33.80;22.25;;;;;;;15.57;100.00;100655.31;5110303;28;20478;-69
2022/10/25 07:32:04;;;;;;;33.30;22.98;;;;;;;15.67;100.00;100647.09;5117529;27;20589;-69
2022/10/25 07:34:30;;;;;;;32.53;21.40;;;;;;;15.76;100.00;100633.47;5109322;28;20023;-69
2022/10/25 07:36:55;;;;;;;30.05;20.90;;;;;;;15.87;100.00;100635.88;5111160;28;20036;-69
2022/10/25 07:39:21;;;;;;;30.48;20.42;;;;;;;15.92;100.00;100634.59;5109373;27;20071;-69
2022/10/25 07:41:46;;;;;;;30.73;20.60;;;;;;;15.96;100.00;100633.25;5117135;27;20051;-68
2022/10/25 07:44:12;;;;;;;27.73;19.45;;;;;;;16.00;100.00;100627.34;5117167;27;20035;-69
2022/10/25 07:46:37;;;;;;;28.52;20.05;;;;;;;16.02;100.00;100641.53;5106591;27;21122;-69
2022/10/25 07:49:03;;;;;;;30.83;19.98;;;;;;;16.01;100.00;100652.53;5113949;27;20031;-68
2022/10/25 07:51:28;;;;;;;27.05;20.05;;;;;;;16.01;100.00;100649.81;5115308;27;20470;-68
2022/10/25 07:53:54;;;;;;;26.17;19.10;;;;;;;16.02;100.00;100646.97;5112930;27;20105;-68
2022/10/25 07:56:20;;;;;;;27.73;18.88;;;;;;;16.06;100.00;100658.31;5116566;27;20027;-68
2022/10/25 07:58:45;;;;;;;28.83;18.23;;;;;;;16.01;100.00;100639.00;5120142;27;20434;-68
2022/10/25 08:01:13;;;;;;;31.70;19.65;;;;;;;16.11;100.00;100656.81;5122381;27;20015;-68
2022/10/25 08:03:38;;;;;;;34.15;20.90;;;;;;;16.09;100.00;100648.00;5115615;27;20023;-68
2022/10/25 08:06:04;;;;;;;32.90;20.45;;;;;;;16.13;100.00;100654.81;5116350;27;20559;-68
2022/10/25 08:08:30;;;;;;;27.35;19.05;;;;;;;16.14;100.00;100652.94;5112132;27;20030;-68
2022/10/25 08:10:56;;;;;;;31.77;19.55;;;;;;;16.21;100.00;100653.97;5116149;27;20115;-68
2022/10/25 08:13:22;;;;;;;24.45;17.70;;;;;;;16.05;100.00;100629.56;5131250;27;20031;-69
2022/10/25 08:15:55;;;;;;;23.92;16.95;;;;;;;16.28;100.00;100666.69;5120337;27;20104;-68
2022/10/25 08:18:23;;;;;;;22.63;16.25;;;;;;;16.29;100.00;100662.16;5107260;28;20043;-68
2022/10/25 08:20:49;;;;;;;25.05;15.40;;;;;;;16.43;100.00;100656.13;5103351;28;20080;-68
2022/10/25 08:23:15;;;;;;;23.83;15.63;;;;;;;16.32;100.00;100649.16;5108359;28;20478;-68
2022/10/25 08:25:41;;;;;;;18.98;13.98;;;;;;;16.39;100.00;100661.00;5111780;27;20032;-68
2022/10/25 08:28:06;;;;;;;21.60;14.20;;;;;;;16.36;100.00;100672.16;5107451;28;20115;-68
2022/10/25 08:30:32;;;;;;;17.92;13.65;;;;;;;16.38;100.00;100669.31;5105340;27;20394;-68
2022/10/25 08:32:57;;;;;;;20.60;13.48;;;;;;;16.38;100.00;100680.13;5107209;28;20011;-68
2022/10/25 08:35:22;;;;;;;19.73;13.35;;;;;;;16.39;100.00;100684.53;5109814;28;20034;-68
2022/10/25 08:37:48;;;;;;;18.08;12.75;;;;;;;16.43;100.00;100688.63;5109810;28;20077;-68
2022/10/25 08:40:41;;;;;;;19.00;12.57;;;;;;;16.53;100.00;100698.31;5109531;28;20034;-68
2022/10/25 08:43:07;;;;;;;22.27;13.90;;;;;;;16.62;100.00;100691.94;5109414;28;20371;-69
2022/10/25 08:45:40;;;;;;;24.48;13.98;;;;;;;16.63;100.00;100682.78;5107804;28;20039;-68
2022/10/25 08:48:15;;;;;;;20.95;13.50;;;;;;;16.61;100.00;100687.50;5109716;28;20071;-68
2022/10/25 08:50:45;;;;;;;20.50;13.20;;;;;;;16.73;100.00;100683.50;5109767;28;20019;-68
2022/10/25 08:53:26;;;;;;;22.02;14.30;;;;;;;16.82;100.00;100681.66;5109398;28;20051;-68
2022/10/25 08:55:53;;;;;;;16.88;12.30;;;;;;;16.77;100.00;100675.91;5109325;28;20118;-68
2022/10/25 08:58:35;;;;;;;21.60;14.20;;;;;;;16.89;100.00;100696.22;5107792;28;20111;-68
2022/10/25 09:01:11;;;;;;;21.20;14.18;;;;;;;16.81;100.00;100683.53;5108709;28;20036;-68
2022/10/25 09:03:39;;;;;;;17.90;13.50;;;;;;;16.75;100.00;100684.19;5107858;28;20490;-68
2022/10/25 09:06:29;;;;;;;20.27;13.20;;;;;;;16.67;100.00;100681.44;5109140;28;20047;-68
2022/10/25 09:09:04;;;;;;;20.63;13.80;;;;;;;16.65;100.00;100688.91;5115826;27;20030;-68
2022/10/25 09:11:46;;;;;;;17.85;12.05;;;;;;;16.76;100.00;100682.31;5105134;28;20040;-68
2022/10/25 09:14:41;;;;;;;18.02;12.30;;;;;;;16.70;100.00;100685.69;5107380;28;20027;-68
2022/10/25 09:17:21;;;;;;;17.23;11.45;;;;;;;16.76;100.00;100682.31;5105682;28;20212;-68
2022/10/25 09:20:01;;;;;;;16.50;12.07;;;;;;;16.73;100.00;100685.38;5108851;28;20035;-68
2022/10/25 09:22:29;;;;;;;16.48;12.18;;;;;;;16.64;100.00;100684.47;5108903;28;20031;-68
2022/10/25 09:25:37;;;;;;;18.27;12.43;;;;;;;16.74;100.00;100696.03;5107490;28;20038;-68
2022/10/25 09:28:10;;;;;;;18.63;12.90;;;;;;;16.83;100.00;100703.16;5085173;28;20494;-68
2022/10/25 09:30:42;;;;;;;20.90;13.70;;;;;;;16.84;100.00;100702.16;5109054;28;20050;-68
2022/10/25 09:33:15;;;;;;;19.88;12.85;;;;;;;16.83;100.00;100703.16;5109051;28;20019;-68
2022/10/25 09:35:47;;;;;;;18.88;13.43;;;;;;;16.83;100.00;100705.88;5109064;28;20516;-70
2022/10/25 09:38:15;;;;;;;17.05;12.00;;;;;;;16.85;100.00;100720.09;5107365;28;20440;-71
2022/10/25 09:40:59;;;;;;;17.88;12.25;;;;;;;16.85;100.00;100719.25;5108773;28;20028;-71
2022/10/25 09:43:39;;;;;;;17.45;11.30;;;;;;;16.78;100.00;100713.66;5108442;28;20088;-70
2022/10/25 09:46:15;;;;;;;17.17;11.60;;;;;;;16.71;100.00;100714.47;5107227;28;20123;-71
2022/10/25 09:48:53;;;;;;;18.88;12.48;;;;;;;16.74;100.00;100709.59;5108882;28;20098;-68
2022/10/25 09:51:18;;;;;;;20.13;12.38;;;;;;;16.75;100.00;100721.25;5108664;28;20076;-68
2022/10/25 09:53:45;;;;;;;18.90;12.88;;;;;;;16.80;100.00;100716.19;5107359;28;20031;-68
2022/10/25 09:56:11;;;;;;;16.65;11.73;;;;;;;16.64;100.00;100699.91;5108774;28;20040;-68
2022/10/25 09:58:43;;;;;;;18.30;11.43;;;;;;;16.62;100.00;100719.00;5107571;28;20040;-68
2022/10/25 10:01:31;;;;;;;19.00;11.52;;;;;;;16.65;100.00;100723.25;5107176;28;20026;-68
2022/10/25 10:04:22;;;;;;;19.35;12.95;;;;;;;16.60;100.00;100720.19;5108403;28;20069;-68
2022/10/25 10:06:50;;;;;;;20.33;11.80;;;;;;;16.48;100.00;100706.06;5108204;27;20035;-68
2022/10/25 10:09:16;;;;;;;16.67;10.75;;;;;;;16.64;100.00;100718.84;5105387;28;20023;-69
2022/10/25 10:11:46;;;;;;;12.88;9.90;;;;;;;16.76;100.00;100721.09;5105878;28;20031;-69
2022/10/25 10:14:30;;;;;;;15.63;9.93;;;;;;;16.77;100.00;100717.34;5106996;28;20033;-69
2022/10/25 10:16:57;;;;;;;17.88;9.63;;;;;;;16.59;100.00;100702.22;5108417;28;20032;-69
2022/10/25 10:19:28;;;;;;;14.95;9.90;;;;;;;16.58;100.00;100717.66;5109272;28;20023;-69
2022/10/25 10:22:00;;;;;;;12.38;8.73;;;;;;;16.57;100.00;100713.22;5110653;28;20109;-69
2022/10/25 10:24:38;;;;;;;12.23;8.63;;;;;;;16.54;100.00;100716.25;5112108;28;20112;-69
2022/10/25 10:27:10;;;;;;;12.93;8.55;;;;;;;16.43;100.00;100713.84;5112042;28;20373;-70
2022/10/25 10:29:37;;;;;;;13.15;9.00;;;;;;;16.40;100.00;100724.13;5112285;28;20061;-70
2022/10/25 10:32:06;;;;;;;12.57;8.85;;;;;;;16.42;100.00;100719.41;5112195;28;20067;-70
2022/10/25 10:34:41;;;;;;;15.88;9.60;;;;;;;16.39;100.00;100712.47;5111897;28;20554;-71
2022/10/25 10:37:27;;;;;;;14.27;9.73;;;;;;;16.34;100.00;100703.13;5111974;28;20019;-71
2022/10/25 10:40:00;;;;;;;14.82;8.75;;;;;;;16.40;100.00;100721.41;5110296;28;20019;-70
2022/10/25 10:42:30;;;;;;;13.30;9.05;;;;;;;16.39;100.00;100712.47;5110012;28;20054;-70
2022/10/25 10:45:08;;;;;;;13.52;8.40;;;;;;;16.40;100.00;100714.16;5111773;28;20030;-69
2022/10/25 10:47:48;;;;;;;13.43;9.35;;;;;;;16.42;100.00;100725.66;5111807;28;20031;-68
2022/10/25 10:50:20;;;;;;;13.38;7.90;;;;;;;16.50;100.00;100717.59;5111369;28;20016;-68
2022/10/25 10:52:51;;;;;;;10.23;8.05;;;;;;;16.51;100.00;100727.41;5111453;28;20462;-68
2022/10/25 10:55:26;;;;;;;14.02;8.00;;;;;;;16.54;100.00;100723.56;5109938;28;20482;-68
2022/10/25 10:57:54;;;;;;;13.30;8.80;;;;;;;16.58;100.00;100719.50;5109993;28;20028;-69
2022/10/25 11:00:22;;;;;;;14.50;8.70;;;;;;;16.71;100.00;100715.34;5111625;28;20516;-69
2022/10/25 11:02:48;;;;;;;10.77;7.57;;;;;;;16.80;100.00;100718.91;5111467;28;20028;-68
2022/10/25 11:05:36;;;;;;;15.73;7.68;;;;;;;17.00;100.00;100715.75;5111421;28;20023;-68
2022/10/25 11:08:19;;;;;;;10.07;6.82;;;;;;;17.11;100.00;100722.69;5111469;28;20432;-68
2022/10/25 11:10:45;;;;;;;12.83;7.73;;;;;;;17.21;100.00;100723.38;5111352;28;20032;-68
2022/10/25 11:13:13;;;;;;;13.50;8.45;;;;;;;17.24;100.00;100725.78;5109823;28;20394;-68
2022/10/25 11:15:50;;;;;;;13.07;8.00;;;;;;;17.27;100.00;100729.00;5111271;28;20078;-69
2022/10/25 11:18:17;;;;;;;13.52;7.97;;;;;;;17.24;100.00;100710.38;5109588;28;20483;-69
2022/10/25 11:20:58;;;;;;;12.55;7.25;;;;;;;17.33;100.00;100719.34;5111215;27;20047;-68
2022/10/25 11:23:38;;;;;;;13.38;6.45;;;;;;;17.50;99.50;100731.94;5111225;28;20474;-69
2022/10/25 11:26:20;;;;;;;9.77;6.43;;;;;;;17.39;100.00;100716.81;5109998;28;20073;-69